Time,TemperatureF,DewpointF,PressureIn,WindDirection,WindDirectionDegrees,WindSpeedMPH,WindSpeedGustMPH,Humidity,HourlyPrecipIn,Conditions,Clouds,dailyrainin,SoftwareType,DateUTC
2013-03-28 00:03:00,32.0,19.0,-100.00,SSE,164,2.0,4.0,57,0.00,,,0.31,,2013-03-28 04:03:00,
2013-03-28 00:12:00,32.0,19.0,-100.00,SSE,164,2.0,4.0,57,0.00,,,0.31,,2013-03-28 04:12:00,
2013-03-28 00:23:00,32.0,20.0,-100.00,WNW,285,1.0,2.0,61,0.00,,,0.31,,2013-03-28 04:23:00,
2013-03-28 00:32:00,32.0,20.0,-100.00,WNW,285,1.0,2.0,61,0.00,,,0.31,,2013-03-28 04:32:00,
2013-03-28 00:42:00,32.0,20.0,-100.00,WNW,285,1.0,2.0,61,0.00,,,0.31,,2013-03-28 04:42:00,
2013-03-28 00:53:00,31.0,20.0,-100.00,ENE,65,1.0,2.0,64,0.00,,,0.28,,2013-03-28 04:53:00,
2013-03-28 01:02:00,31.0,18.0,-100.00,NNW,347,2.0,3.0,58,0.00,,,0.28,,2013-03-28 05:02:00,
2013-03-28 01:12:00,31.0,18.0,-100.00,NNW,347,2.0,3.0,58,0.00,,,0.28,,2013-03-28 05:12:00,
2013-03-28 01:22:00,31.0,18.0,-100.00,NNW,342,2.0,3.0,58,0.00,,,0.28,,2013-03-28 05:22:00,
2013-03-28 01:32:00,31.0,19.0,-100.00,NE,35,2.0,3.0,60,0.00,,,0.26,,2013-03-28 05:32:00,
2013-03-28 01:42:00,31.0,19.0,-100.00,NE,35,2.0,3.0,60,0.00,,,0.26,,2013-03-28 05:42:00,
2013-03-28 01:52:00,31.0,19.0,-100.00,NE,35,2.0,3.0,60,0.00,,,0.26,,2013-03-28 05:52:00,
2013-03-28 02:02:00,31.0,19.0,-100.00,NNE,30,2.0,3.0,62,0.00,,,0.21,,2013-03-28 06:02:00,
2013-03-28 02:13:00,31.0,19.0,-100.00,NNE,30,2.0,3.0,62,0.00,,,0.21,,2013-03-28 06:13:00,
2013-03-28 02:22:00,31.0,18.0,-100.00,NE,35,2.0,3.0,59,0.00,,,0.18,,2013-03-28 06:22:00,
2013-03-28 02:32:00,30.0,19.0,-100.00,NNE,16,3.0,4.0,61,0.00,,,0.17,,2013-03-28 06:32:00,
2013-03-28 02:42:00,30.0,19.0,-100.00,NNE,16,3.0,4.0,61,0.00,,,0.17,,2013-03-28 06:42:00,
2013-03-28 02:52:00,30.0,19.0,-100.00,North,10,4.0,5.0,63,0.00,,,0.17,,2013-03-28 06:52:00,
2013-03-28 03:02:00,30.0,18.0,-100.00,NNE,31,4.0,4.0,59,0.00,,,0.15,,2013-03-28 07:02:00,
2013-03-28 03:13:00,30.0,18.0,-100.00,NNE,31,4.0,4.0,59,0.00,,,0.15,,2013-03-28 07:13:00,
2013-03-28 03:22:00,30.0,18.0,-100.00,NNE,31,4.0,4.0,59,0.00,,,0.15,,2013-03-28 07:22:00,
2013-03-28 03:32:00,30.0,18.0,-100.00,NNE,23,2.0,3.0,61,0.00,,,0.11,,2013-03-28 07:32:00,
2013-03-28 03:42:00,30.0,18.0,-100.00,NNE,23,2.0,3.0,61,0.00,,,0.11,,2013-03-28 07:42:00,
2013-03-28 03:52:00,30.0,18.0,-100.00,NNE,27,3.0,3.0,61,0.00,,,0.01,,2013-03-28 07:52:00,
2013-03-28 04:02:00,30.0,19.0,-100.00,NNE,17,4.0,6.0,63,0.00,,,0.00,,2013-03-28 08:02:00,
2013-03-28 04:12:00,30.0,19.0,-100.00,NNE,17,4.0,6.0,63,0.00,,,0.00,,2013-03-28 08:12:00,
2013-03-28 04:22:00,30.0,19.0,-100.00,NNW,342,2.0,2.0,64,0.00,,,0.00,,2013-03-28 08:22:00,
2013-03-28 04:33:00,30.0,19.0,-100.00,NW,316,1.0,2.0,64,0.00,,,0.00,,2013-03-28 08:33:00,
2013-03-28 04:42:00,29.0,18.0,-100.00,NW,320,1.0,2.0,62,0.00,,,0.00,,2013-03-28 08:42:00,
2013-03-28 04:52:00,29.0,18.0,-100.00,NW,320,1.0,2.0,62,0.00,,,0.00,,2013-03-28 08:52:00,
2013-03-28 05:02:00,29.0,19.0,-100.00,North,8,2.0,4.0,64,0.00,,,0.00,,2013-03-28 09:02:00,
2013-03-28 05:12:00,29.0,19.0,-100.00,North,8,2.0,4.0,64,0.00,,,0.00,,2013-03-28 09:12:00,
2013-03-28 05:22:00,30.0,18.0,-100.00,NE,54,2.0,3.0,62,0.00,,,0.00,,2013-03-28 09:22:00,
2013-03-28 05:32:00,30.0,18.0,-100.00,North,349,2.0,3.0,60,0.00,,,0.00,,2013-03-28 09:32:00,
2013-03-28 05:42:00,30.0,18.0,-100.00,North,349,2.0,3.0,60,0.00,,,0.00,,2013-03-28 09:42:00,
2013-03-28 05:52:00,29.0,18.0,-100.00,NNW,333,2.0,3.0,63,0.00,,,0.00,,2013-03-28 09:52:00,
2013-03-28 06:03:00,29.0,18.0,-100.00,NNW,333,2.0,3.0,63,0.00,,,0.00,,2013-03-28 10:03:00,
2013-03-28 06:12:00,29.0,18.0,-100.00,NNW,333,2.0,3.0,63,0.00,,,0.00,,2013-03-28 10:12:00,
2013-03-28 06:22:00,29.0,18.0,-100.00,NNW,333,2.0,3.0,63,0.00,,,0.00,,2013-03-28 10:22:00,
2013-03-28 06:33:00,28.0,19.0,-100.00,WNW,296,1.0,2.0,67,0.00,,,0.00,,2013-03-28 10:33:00,
2013-03-28 06:43:00,28.0,19.0,-100.00,WNW,296,1.0,2.0,67,0.00,,,0.00,,2013-03-28 10:43:00,
2013-03-28 06:53:00,28.0,19.0,-100.00,NNE,30,1.0,2.0,69,0.00,,,0.00,,2013-03-28 10:53:00,
2013-03-28 07:02:00,28.0,19.0,-100.00,WNW,302,0.0,1.0,70,0.00,,,0.00,,2013-03-28 11:02:00,
2013-03-28 07:12:00,28.0,19.0,-100.00,WNW,302,0.0,1.0,70,0.00,,,0.00,,2013-03-28 11:12:00,
2013-03-28 07:23:00,27.0,19.0,-100.00,NNE,25,1.0,2.0,71,0.00,,,0.00,,2013-03-28 11:23:00,
2013-03-28 07:32:00,27.0,19.0,-100.00,NNE,32,0.0,2.0,72,0.00,,,0.00,,2013-03-28 11:32:00,
2013-03-28 07:43:00,27.0,19.0,-100.00,NNE,32,0.0,2.0,72,0.00,,,0.00,,2013-03-28 11:43:00,
2013-03-28 07:52:00,27.0,20.0,-100.00,North,3,0.0,1.0,73,0.00,,,0.00,,2013-03-28 11:52:00,
2013-03-28 08:02:00,27.0,19.0,-100.00,NNE,14,1.0,2.0,73,0.00,,,0.00,,2013-03-28 12:02:00,
2013-03-28 08:12:00,27.0,19.0,-100.00,NNE,14,1.0,2.0,73,0.00,,,0.00,,2013-03-28 12:12:00,
2013-03-28 08:22:00,27.0,19.0,-100.00,North,353,1.0,2.0,70,0.00,,,0.00,,2013-03-28 12:22:00,
2013-03-28 08:52:00,27.0,20.0,-100.00,WNW,299,1.0,2.0,74,0.00,,,0.00,,2013-03-28 12:52:00,
2013-03-28 09:02:00,27.0,20.0,-100.00,WNW,299,1.0,2.0,74,0.00,,,0.00,,2013-03-28 13:02:00,
2013-03-28 09:12:00,27.0,20.0,-100.00,WNW,299,1.0,2.0,74,0.00,,,0.00,,2013-03-28 13:12:00,
2013-03-28 09:22:00,27.0,21.0,-100.00,East,95,0.0,2.0,76,0.00,,,0.00,,2013-03-28 13:22:00,
2013-03-28 09:32:00,28.0,21.0,-100.00,SE,138,0.0,0.0,76,0.00,,,0.00,,2013-03-28 13:32:00,
2013-03-28 09:42:00,28.0,21.0,-100.00,SE,138,0.0,0.0,76,0.00,,,0.00,,2013-03-28 13:42:00,
2013-03-28 09:52:00,28.0,22.0,-100.00,ENE,73,0.0,1.0,76,0.00,,,0.00,,2013-03-28 13:52:00,
2013-03-28 10:02:00,28.0,22.0,-100.00,North,350,0.0,1.0,78,0.00,,,0.00,,2013-03-28 14:02:00,
2013-03-28 10:12:00,28.0,22.0,-100.00,North,350,0.0,1.0,78,0.00,,,0.00,,2013-03-28 14:12:00,
2013-03-28 10:23:00,28.0,22.0,-100.00,North,350,0.0,1.0,78,0.00,,,0.00,,2013-03-28 14:23:00,
2013-03-28 10:33:00,33.0,24.0,-100.00,South,186,2.0,2.0,71,0.00,,,0.00,,2013-03-28 14:33:00,
2013-03-28 10:42:00,33.0,24.0,-100.00,South,186,2.0,2.0,71,0.00,,,0.00,,2013-03-28 14:42:00,
2013-03-28 10:52:00,34.0,23.0,-100.00,SSE,162,2.0,4.0,63,0.00,,,0.00,,2013-03-28 14:52:00,
2013-03-28 11:02:00,34.0,23.0,-100.00,SSE,162,2.0,4.0,63,0.00,,,0.00,,2013-03-28 15:02:00,
2013-03-28 11:12:00,34.0,23.0,-100.00,SW,227,2.0,4.0,62,0.00,,,0.00,,2013-03-28 15:12:00,
2013-03-28 11:22:00,34.0,23.0,-100.00,SW,227,2.0,4.0,62,0.00,,,0.00,,2013-03-28 15:22:00,
2013-03-28 11:33:00,35.0,22.0,-100.00,SSW,213,3.0,4.0,60,0.00,,,0.00,,2013-03-28 15:33:00,
2013-03-28 11:43:00,35.0,22.0,-100.00,SSW,213,3.0,4.0,60,0.00,,,0.00,,2013-03-28 15:43:00,
2013-03-28 11:53:00,36.0,23.0,-100.00,WSW,239,2.0,4.0,58,0.00,,,0.00,,2013-03-28 15:53:00,
2013-03-28 12:03:00,38.0,22.0,-100.00,SSW,210,2.0,4.0,52,0.00,,,0.00,,2013-03-28 16:03:00,
2013-03-28 12:13:00,38.0,22.0,-100.00,SSW,210,2.0,4.0,52,0.00,,,0.00,,2013-03-28 16:13:00,
2013-03-28 12:23:00,39.0,21.0,-100.00,SSE,165,4.0,6.0,48,0.00,,,0.00,,2013-03-28 16:23:00,
2013-03-28 12:32:00,39.0,21.0,-100.00,ENE,75,3.0,5.0,48,0.00,,,0.00,,2013-03-28 16:32:00,
2013-03-28 12:42:00,39.0,21.0,-100.00,ENE,75,3.0,5.0,48,0.00,,,0.00,,2013-03-28 16:42:00,
2013-03-28 12:52:00,38.0,24.0,-100.00,SSE,154,2.0,4.0,58,0.00,,,0.00,,2013-03-28 16:52:00,
2013-03-28 13:02:00,40.0,24.0,-100.00,SW,215,3.0,5.0,54,0.00,,,0.00,,2013-03-28 17:02:00,
2013-03-28 13:12:00,40.0,24.0,-100.00,SW,215,3.0,5.0,54,0.00,,,0.00,,2013-03-28 17:12:00,
2013-03-28 13:22:00,40.0,23.0,-100.00,East,99,3.0,6.0,50,0.00,,,0.00,,2013-03-28 17:22:00,
2013-03-28 13:32:00,39.0,21.0,-100.00,NE,45,3.0,5.0,47,0.00,,,0.00,,2013-03-28 17:32:00,
2013-03-28 13:42:00,39.0,21.0,-100.00,NE,45,3.0,5.0,47,0.00,,,0.00,,2013-03-28 17:42:00,
2013-03-28 13:52:00,41.0,25.0,-100.00,NNE,32,7.0,12.0,52,0.00,,,0.00,,2013-03-28 17:52:00,
2013-03-28 14:02:00,39.0,21.0,-100.00,NW,316,2.0,5.0,48,0.00,,,0.00,,2013-03-28 18:02:00,
2013-03-28 14:12:00,39.0,21.0,-100.00,NW,316,2.0,5.0,48,0.00,,,0.00,,2013-03-28 18:12:00,
2013-03-28 14:22:00,42.0,23.0,-100.00,South,175,2.0,4.0,47,0.00,,,0.00,,2013-03-28 18:22:00,
2013-03-28 14:32:00,42.0,21.0,-100.00,SW,217,3.0,7.0,43,0.00,,,0.00,,2013-03-28 18:32:00,
2013-03-28 14:42:00,42.0,21.0,-100.00,SW,217,3.0,7.0,43,0.00,,,0.00,,2013-03-28 18:42:00,
2013-03-28 14:52:00,42.0,21.0,-100.00,South,186,7.0,11.0,44,0.00,,,0.00,,2013-03-28 18:52:00,
2013-03-28 15:02:00,43.0,23.0,-100.00,SE,144,3.0,7.0,43,0.00,,,0.00,,2013-03-28 19:02:00,
2013-03-28 15:12:00,43.0,23.0,-100.00,SE,144,3.0,7.0,43,0.00,,,0.00,,2013-03-28 19:12:00,
2013-03-28 15:23:00,42.0,23.0,-100.00,ESE,116,4.0,7.0,47,0.00,,,0.00,,2013-03-28 19:23:00,
2013-03-28 15:33:00,42.0,23.0,-100.00,ESE,116,4.0,7.0,47,0.00,,,0.00,,2013-03-28 19:33:00,
2013-03-28 15:42:00,42.0,23.0,-100.00,ESE,116,4.0,7.0,47,0.00,,,0.00,,2013-03-28 19:42:00,
2013-03-28 16:03:00,46.0,26.0,-100.00,SSW,192,2.0,6.0,45,0.00,,,0.00,,2013-03-28 20:03:00,
2013-03-28 16:12:00,46.0,26.0,-100.00,SSW,192,2.0,6.0,45,0.00,,,0.00,,2013-03-28 20:12:00,
2013-03-28 16:22:00,46.0,24.0,-100.00,SSW,205,4.0,6.0,41,0.00,,,0.00,,2013-03-28 20:22:00,
2013-03-28 16:32:00,46.0,27.0,-100.00,SSE,157,4.0,6.0,48,0.00,,,0.00,,2013-03-28 20:32:00,
2013-03-28 16:42:00,45.0,21.0,-100.00,SSE,162,5.0,9.0,38,0.00,,,0.00,,2013-03-28 20:42:00,
2013-03-28 16:53:00,45.0,21.0,-100.00,SSE,162,5.0,9.0,38,0.00,,,0.00,,2013-03-28 20:53:00,
2013-03-28 17:02:00,46.0,21.0,-100.00,SE,136,5.0,8.0,37,0.00,,,0.00,,2013-03-28 21:02:00,
2013-03-28 17:12:00,46.0,21.0,-100.00,SE,136,5.0,8.0,37,0.00,,,0.00,,2013-03-28 21:12:00,
2013-03-28 17:22:00,47.0,20.0,-100.00,NE,55,4.0,6.0,33,0.00,,,0.00,,2013-03-28 21:22:00,
2013-03-28 17:33:00,45.0,19.0,-100.00,SSW,192,4.0,6.0,35,0.00,,,0.00,,2013-03-28 21:33:00,
2013-03-28 17:43:00,45.0,19.0,-100.00,SSW,192,4.0,6.0,35,0.00,,,0.00,,2013-03-28 21:43:00,
2013-03-28 17:53:00,47.0,23.0,-100.00,South,174,3.0,6.0,37,0.00,,,0.00,,2013-03-28 21:53:00,
2013-03-28 18:03:00,45.0,20.0,-100.00,SW,219,5.0,11.0,37,0.00,,,0.00,,2013-03-28 22:03:00,
2013-03-28 18:13:00,45.0,20.0,-100.00,SW,219,5.0,11.0,37,0.00,,,0.00,,2013-03-28 22:13:00,
2013-03-28 18:23:00,44.0,21.0,-100.00,ESE,120,4.0,7.0,39,0.00,,,0.00,,2013-03-28 22:23:00,
2013-03-28 18:32:00,45.0,20.0,-100.00,SE,140,2.0,5.0,37,0.00,,,0.00,,2013-03-28 22:32:00,
2013-03-28 18:42:00,45.0,20.0,-100.00,SE,140,2.0,5.0,37,0.00,,,0.00,,2013-03-28 22:42:00,
2013-03-28 18:53:00,45.0,20.0,-100.00,SE,140,2.0,5.0,37,0.00,,,0.00,,2013-03-28 22:53:00,
2013-03-28 19:03:00,45.0,19.0,-100.00,NE,48,2.0,7.0,36,0.00,,,0.00,,2013-03-28 23:03:00,
2013-03-28 19:12:00,45.0,19.0,-100.00,NE,48,2.0,7.0,36,0.00,,,0.00,,2013-03-28 23:12:00,
2013-03-28 19:22:00,44.0,20.0,-100.00,NE,55,2.0,5.0,37,0.00,,,0.00,,2013-03-28 23:22:00,
2013-03-28 19:32:00,44.0,20.0,-100.00,NE,55,2.0,5.0,37,0.00,,,0.00,,2013-03-28 23:32:00,
2013-03-28 19:42:00,43.0,20.0,-100.00,NW,316,2.0,6.0,39,0.00,,,0.00,,2013-03-28 23:42:00,
2013-03-28 19:53:00,42.0,20.0,-100.00,ENE,72,2.0,3.0,42,0.00,,,0.00,,2013-03-28 23:53:00,
2013-03-28 20:03:00,42.0,20.0,-100.00,ENE,72,2.0,3.0,42,0.00,,,0.00,,2013-03-29 00:03:00,
2013-03-28 20:12:00,42.0,20.0,-100.00,NE,45,1.0,2.0,41,0.00,,,0.00,,2013-03-29 00:12:00,
2013-03-28 20:22:00,42.0,20.0,-100.00,NE,45,1.0,2.0,41,0.00,,,0.00,,2013-03-29 00:22:00,
2013-03-28 20:32:00,41.0,19.0,-100.00,NNE,30,2.0,3.0,42,0.00,,,0.00,,2013-03-29 00:32:00,
2013-03-28 20:42:00,41.0,19.0,-100.00,NNE,30,2.0,3.0,42,0.00,,,0.00,,2013-03-29 00:42:00,
2013-03-28 20:52:00,40.0,20.0,-100.00,North,0,3.0,4.0,45,0.00,,,0.00,,2013-03-29 00:52:00,
2013-03-28 21:02:00,39.0,20.0,-100.00,NNW,343,2.0,2.0,45,0.00,,,0.00,,2013-03-29 01:02:00,
2013-03-28 21:12:00,39.0,20.0,-100.00,NNW,343,2.0,2.0,45,0.00,,,0.00,,2013-03-29 01:12:00,
2013-03-28 21:22:00,39.0,20.0,-100.00,North,356,2.0,3.0,46,0.00,,,0.00,,2013-03-29 01:22:00,
2013-03-28 21:33:00,38.0,20.0,-100.00,North,357,4.0,6.0,48,0.00,,,0.00,,2013-03-29 01:33:00,
2013-03-28 21:42:00,38.0,20.0,-100.00,North,357,4.0,6.0,48,0.00,,,0.00,,2013-03-29 01:42:00,
2013-03-28 21:52:00,38.0,20.0,-100.00,North,359,3.0,5.0,48,0.00,,,0.00,,2013-03-29 01:52:00,
2013-03-28 22:02:00,37.0,22.0,-100.00,North,357,4.0,5.0,54,0.00,,,0.00,,2013-03-29 02:02:00,
2013-03-28 22:12:00,37.0,22.0,-100.00,North,357,4.0,5.0,54,0.00,,,0.00,,2013-03-29 02:12:00,
2013-03-28 22:22:00,38.0,20.0,-100.00,North,353,3.0,4.0,47,0.00,,,0.00,,2013-03-29 02:22:00,
2013-03-28 22:32:00,38.0,22.0,-100.00,NNE,21,2.0,4.0,51,0.00,,,0.00,,2013-03-29 02:32:00,
2013-03-28 22:42:00,38.0,22.0,-100.00,NNE,21,2.0,4.0,51,0.00,,,0.00,,2013-03-29 02:42:00,
2013-03-28 22:53:00,38.0,20.0,-100.00,NNW,346,2.0,3.0,47,0.00,,,0.00,,2013-03-29 02:53:00,
2013-03-28 23:02:00,38.0,20.0,-100.00,North,4,2.0,2.0,48,0.00,,,0.00,,2013-03-29 03:02:00,
2013-03-28 23:12:00,38.0,20.0,-100.00,North,4,2.0,2.0,48,0.00,,,0.00,,2013-03-29 03:12:00,
2013-03-28 23:22:00,38.0,20.0,-100.00,North,356,2.0,4.0,47,0.00,,,0.00,,2013-03-29 03:22:00,
2013-03-28 23:32:00,38.0,21.0,-100.00,NNW,346,2.0,4.0,51,0.00,,,0.00,,2013-03-29 03:32:00,
2013-03-28 23:43:00,38.0,21.0,-100.00,NNW,346,2.0,4.0,51,0.00,,,0.00,,2013-03-29 03:43:00,
2013-03-28 23:53:00,38.0,21.0,-100.00,NNW,346,2.0,4.0,51,0.00,,,0.00,,2013-03-29 03:53:00,